createdAt,value
2023-03-12T13:39:21.534Z,52.80
2023-03-12T13:41:56.297Z,50.92
2023-03-12T13:44:38.617Z,46.05
2023-03-12T13:47:23.756Z,52.95
2023-03-12T13:50:00.840Z,54.15
2023-03-12T13:52:39.102Z,57.67
2023-03-12T13:55:23.381Z,49.83
2023-03-12T13:57:58.747Z,45.47
2023-03-12T14:00:37.453Z,42.45
2023-03-12T14:03:17.369Z,49.80
2023-03-12T14:05:54.342Z,54.83
2023-03-12T14:08:54.481Z,45.95
2023-03-12T14:11:45.639Z,53.28
2023-03-12T14:14:41.642Z,45.15
2023-03-12T14:17:18.591Z,44.65
2023-03-12T14:19:58.255Z,45.10
2023-03-12T14:22:34.088Z,46.20
2023-03-12T14:25:15.707Z,46.67
2023-03-12T14:27:50.128Z,51.03
2023-03-12T14:30:26.198Z,50.95
2023-03-12T14:33:03.688Z,53.08
2023-03-12T14:35:42.368Z,47.30
2023-03-12T14:38:19.037Z,45.22
2023-03-12T14:40:56.618Z,41.75
2023-03-12T14:43:33.142Z,65.03
2023-03-12T14:46:14.865Z,43.50
2023-03-12T14:48:49.740Z,47.78
2023-03-12T14:51:25.340Z,49.83
2023-03-12T14:54:04.272Z,50.63
2023-03-12T14:56:37.155Z,46.33
2023-03-12T14:59:24.034Z,59.60
2023-03-12T15:02:01.574Z,36.78
2023-03-12T15:04:36.250Z,53.88
2023-03-12T15:07:12.883Z,50.08
2023-03-12T15:09:49.895Z,44.20
2023-03-12T15:12:25.067Z,51.55
2023-03-12T15:15:07.123Z,39.95
2023-03-12T15:17:40.011Z,56.22
2023-03-12T15:22:49.975Z,61.53
2023-03-12T15:25:23.973Z,50.92
2023-03-12T15:28:06.063Z,48.53
2023-03-12T15:30:41.288Z,44.30
2023-03-12T15:33:25.771Z,54.67
2023-03-12T15:36:02.373Z,50.08
2023-03-12T15:38:38.344Z,43.55
2023-03-12T15:41:23.127Z,59.10
2023-03-12T15:43:58.607Z,50.65
2023-03-12T15:46:34.065Z,41.97
2023-03-12T15:49:07.341Z,54.60
2023-03-12T15:51:40.582Z,58.70
2023-03-12T15:54:27.310Z,57.08
2023-03-12T15:57:22.551Z,51.38
2023-03-12T16:00:17.596Z,70.45
2023-03-12T16:02:54.622Z,60.17
2023-03-12T16:05:31.888Z,57.22
2023-03-12T16:08:16.385Z,63.15
2023-03-12T16:10:50.673Z,71.10
2023-03-12T16:13:29.983Z,64.18
2023-03-12T16:16:05.693Z,74.15
2023-03-12T16:18:40.271Z,52.20
2023-03-12T16:21:13.460Z,55.83
2023-03-12T16:23:46.244Z,57.95
2023-03-12T16:26:19.716Z,57.15
2023-03-12T16:28:52.677Z,54.90
2023-03-12T16:31:25.573Z,58.72
2023-03-12T16:36:32.884Z,52.67
2023-03-12T16:39:06.030Z,50.20
2023-03-12T16:41:39.607Z,45.35
2023-03-12T16:44:17.088Z,38.63
2023-03-12T16:46:50.267Z,42.92
2023-03-12T16:49:24.568Z,41.13
2023-03-12T16:51:57.709Z,35.67
2023-03-12T16:57:03.262Z,32.97
2023-03-12T17:02:16.605Z,31.40
2023-03-12T17:04:51.110Z,34.55
2023-03-12T17:07:24.109Z,34.95
2023-03-12T17:12:32.223Z,30.30
2023-03-12T17:15:09.057Z,31.23
2023-03-12T17:17:42.037Z,21.52
2023-03-12T17:20:18.032Z,19.95
2023-03-12T17:22:51.350Z,24.48
2023-03-12T17:25:27.217Z,20.55
2023-03-12T17:28:00.469Z,16.67
2023-03-12T17:30:34.427Z,19.63
2023-03-12T17:33:10.450Z,20.45
2023-03-12T17:35:47.002Z,23.20
2023-03-12T17:38:20.520Z,24.70
2023-03-12T17:40:53.339Z,23.83
2023-03-12T17:43:26.374Z,21.15
2023-03-12T17:48:32.160Z,23.50
2023-03-12T17:51:08.600Z,29.48
2023-03-12T17:53:42.183Z,28.33
2023-03-12T17:56:17.892Z,24.17
2023-03-12T17:58:50.877Z,35.20
2023-03-12T18:03:56.332Z,24.33
2023-03-12T18:06:30.444Z,31.48
2023-03-12T18:09:04.013Z,34.75
2023-03-12T18:11:36.982Z,36.00
2023-03-12T18:16:42.491Z,29.13
2023-03-12T18:19:16.079Z,27.40
2023-03-12T18:21:50.167Z,23.52
2023-03-12T18:24:23.384Z,22.90
2023-03-12T18:26:56.360Z,21.33
2023-03-12T18:32:01.829Z,35.00
2023-03-12T18:34:34.572Z,27.98
2023-03-12T18:37:08.693Z,25.92
2023-03-12T18:39:41.686Z,27.10
2023-03-12T18:44:47.272Z,30.73
2023-03-12T18:47:20.325Z,23.77
2023-03-12T18:52:29.264Z,19.73
2023-03-12T18:55:02.215Z,25.08
2023-03-12T19:00:13.272Z,22.88
2023-03-12T19:02:48.093Z,21.70
2023-03-12T19:05:21.606Z,25.70
2023-03-12T19:07:55.893Z,25.55
2023-03-12T19:10:29.005Z,25.48
2023-03-12T19:13:02.215Z,32.45
2023-03-12T19:15:38.159Z,24.25
2023-03-12T19:18:10.970Z,33.80
2023-03-12T19:20:43.722Z,27.25
2023-03-12T19:23:19.998Z,33.13
2023-03-12T19:25:53.100Z,30.08
2023-03-12T19:28:28.487Z,23.63
2023-03-12T19:31:01.853Z,28.85
2023-03-12T19:33:35.050Z,29.15
2023-03-12T20:10:39.469Z,23.95
2023-03-12T20:39:07.731Z,24.17
2023-03-12T20:41:42.719Z,24.55
2023-03-12T20:44:15.946Z,30.40
2023-03-12T20:46:48.721Z,23.52
2023-03-12T20:49:21.564Z,23.05
2023-03-12T20:51:54.231Z,30.83
2023-03-12T20:54:28.578Z,23.73
2023-03-12T20:57:01.376Z,35.80
2023-03-12T20:59:34.047Z,48.50
2023-03-12T21:02:06.830Z,36.25
2023-03-12T21:04:45.424Z,36.40
2023-03-12T21:07:23.355Z,26.05
2023-03-12T21:32:23.413Z,31.63
2023-03-12T21:41:13.339Z,24.55
2023-03-12T21:46:35.825Z,27.02
2023-03-12T22:17:17.555Z,31.77
2023-03-12T22:19:51.768Z,31.58
2023-03-12T22:22:24.587Z,32.03
2023-03-12T22:24:57.257Z,36.55
2023-03-12T22:27:30.160Z,36.20
2023-03-12T22:30:03.328Z,30.33
2023-03-12T22:32:37.672Z,30.25
2023-03-12T22:35:10.811Z,33.53
2023-03-12T22:37:45.260Z,35.53
2023-03-12T22:40:18.189Z,35.60
2023-03-12T22:45:24.152Z,28.75
2023-03-12T22:47:58.417Z,38.38
2023-03-12T22:50:31.386Z,32.25
2023-03-12T22:55:36.804Z,46.10
2023-03-12T22:58:10.434Z,31.23
2023-03-12T23:00:43.264Z,34.90
2023-03-12T23:03:17.455Z,33.85
2023-03-12T23:05:50.140Z,36.15
2023-03-12T23:08:23.606Z,34.42
2023-03-12T23:10:58.813Z,25.52
2023-03-12T23:13:34.589Z,26.00
2023-03-12T23:16:09.787Z,28.10
2023-03-12T23:18:45.876Z,24.65
2023-03-12T23:21:21.340Z,26.67
2023-03-12T23:23:54.341Z,21.98
2023-03-12T23:29:03.915Z,34.13
2023-03-12T23:34:11.429Z,21.55
2023-03-12T23:36:46.015Z,23.30
2023-03-12T23:39:18.915Z,19.98
2023-03-12T23:44:24.383Z,27.33
2023-03-12T23:46:57.190Z,30.27
2023-03-12T23:49:31.301Z,25.00
2023-03-12T23:52:04.329Z,24.23
2023-03-12T23:54:37.230Z,26.45
2023-03-12T23:57:09.982Z,24.80
2023-03-12T23:59:42.812Z,29.35
